Time;durP1;ratioP1;P1;durP2;ratioP2;P2;SDS_P1;SDS_P2;PMS_P1;PMS_P2;Temp;Humidity;BMP_temperature;BMP_pressure;BME280_temperature;BME280_humidity;BME280_pressure;Samples;Min_cycle;Max_cycle;Signal;HPM_P1;HPM_P2
2021/08/18 00:02:10;;;;;;;;;;;;;;;28.12;40.21;97492.97;5069444;28;1664;-61
2021/08/18 00:04:35;;;;;;;;;;;;;;;28.10;40.31;97494.94;5069754;28;1148;-62
2021/08/18 00:07:00;;;;;;;;;;;;;;;28.13;39.95;97504.47;5067947;28;1544;-61
2021/08/18 00:09:25;;;;;;;;;;;;;;;28.16;39.91;97505.00;5070487;28;1390;-62
2021/08/18 00:11:53;;;;;;;;;;;;;;;28.15;39.80;97503.34;5068869;28;1383;-63
2021/08/18 00:14:18;;;;;;;;;;;;;;;28.07;39.76;97501.38;5068494;28;1913;-61
2021/08/18 00:16:43;;;;;;;;;;;;;;;27.96;40.20;97505.94;5068807;28;1195;-61
2021/08/18 00:19:08;;;;;;;;;;;;;;;28.05;40.12;97498.03;5068655;28;1369;-61
2021/08/18 00:21:34;;;;;;;;;;;;;;;27.95;40.44;97499.81;5068116;28;1600;-60
2021/08/18 00:23:59;;;;;;;;;;;;;;;28.14;40.06;97506.13;5069612;28;1297;-60
2021/08/18 00:26:27;;;;;;;;;;;;;;;28.19;39.71;97503.88;5070095;28;1234;-62
2021/08/18 00:28:53;;;;;;;;;;;;;;;28.13;40.17;97501.81;5068030;28;1619;-62
2021/08/18 00:31:18;;;;;;;;;;;;;;;28.25;39.68;97498.03;5068230;28;1433;-61
2021/08/18 00:33:43;;;;;;;;;;;;;;;28.04;40.32;97501.66;5066256;28;1556;-61
2021/08/18 00:36:09;;;;;;;;;;;;;;;28.09;40.04;97507.38;5068308;28;1902;-61
2021/08/18 00:38:34;;;;;;;;;;;;;;;28.25;39.87;97504.16;5068365;28;1287;-62
2021/08/18 00:40:59;;;;;;;;;;;;;;;28.17;39.65;97508.50;5066987;28;1623;-63
2021/08/18 00:43:24;;;;;;;;;;;;;;;28.22;39.74;97506.28;5059872;28;1822;-60
2021/08/18 00:45:49;;;;;;;;;;;;;;;28.10;39.97;97505.56;5069362;28;1104;-62
2021/08/18 00:48:15;;;;;;;;;;;;;;;28.01;40.26;97504.56;5068411;28;1353;-61
2021/08/18 00:50:40;;;;;;;;;;;;;;;27.99;40.21;97490.63;5065786;28;1489;-61
2021/08/18 00:53:05;;;;;;;;;;;;;;;28.28;39.70;97484.47;5066346;28;1608;-62
2021/08/18 00:55:30;;;;;;;;;;;;;;;28.21;39.79;97504.59;5067051;28;1952;-62
2021/08/18 00:57:56;;;;;;;;;;;;;;;28.15;39.80;97497.19;5067037;28;1516;-63
2021/08/18 01:00:21;;;;;;;;;;;;;;;28.06;40.16;97497.06;5062628;28;1228;-61
2021/08/18 01:02:47;;;;;;;;;;;;;;;28.10;40.10;97498.44;5061939;28;1642;-62
2021/08/18 01:05:19;;;;;;;;;;;;;;;28.24;39.81;97499.00;5064684;28;1044;-62
2021/08/18 01:07:48;;;;;;;;;;;;;;;28.09;39.88;97493.28;5068423;28;1410;-62
2021/08/18 01:10:14;;;;;;;;;;;;;;;28.16;39.93;97497.06;5067149;28;1607;-61
2021/08/18 01:12:39;;;;;;;;;;;;;;;27.99;40.21;97487.97;5065661;28;1556;-63
2021/08/18 01:15:05;;;;;;;;;;;;;;;28.04;40.19;97484.88;5069074;28;1905;-63
2021/08/18 01:17:34;;;;;;;;;;;;;;;28.09;39.80;97485.31;5055400;28;1724;-62
2021/08/18 01:20:00;;;;;;;;;;;;;;;28.22;39.70;97480.59;5057648;28;1389;-63
2021/08/18 01:22:25;;;;;;;;;;;;;;;28.08;39.76;97481.84;5067438;28;1279;-62
2021/08/18 01:24:50;;;;;;;;;;;;;;;28.21;39.84;97478.09;5066996;28;1555;-62
2021/08/18 01:27:16;;;;;;;;;;;;;;;28.05;40.04;97481.28;5066599;28;1614;-61
2021/08/18 01:29:41;;;;;;;;;;;;;;;28.15;39.77;97475.97;5056044;28;1403;-62
2021/08/18 01:32:06;;;;;;;;;;;;;;;28.20;39.52;97482.56;5066719;28;1134;-63
2021/08/18 01:34:35;;;;;;;;;;;;;;;28.15;39.77;97479.47;5066442;28;1969;-63
2021/08/18 01:37:00;;;;;;;;;;;;;;;28.19;39.81;97478.19;5066885;28;912;-60
2021/08/18 01:39:25;;;;;;;;;;;;;;;28.07;39.98;97482.81;5065025;28;1678;-61
2021/08/18 01:41:50;;;;;;;;;;;;;;;28.25;39.70;97475.00;5068956;28;1247;-62
2021/08/18 01:44:15;;;;;;;;;;;;;;;27.96;40.03;97479.44;5067810;28;1798;-63
2021/08/18 01:46:41;;;;;;;;;;;;;;;28.12;39.75;97478.91;5067596;28;1386;-62
2021/08/18 01:49:06;;;;;;;;;;;;;;;28.15;39.60;97482.13;5068040;28;1261;-62
2021/08/18 01:51:31;;;;;;;;;;;;;;;28.00;40.06;97475.56;5067717;28;1541;-61
2021/08/18 01:53:56;;;;;;;;;;;;;;;28.07;39.87;97484.63;5068699;28;1116;-60
2021/08/18 01:56:21;;;;;;;;;;;;;;;28.15;39.82;97475.97;5067291;28;1961;-60
2021/08/18 01:58:49;;;;;;;;;;;;;;;27.96;39.94;97480.28;5067463;28;1509;-61
2021/08/18 02:01:14;;;;;;;;;;;;;;;28.20;39.61;97476.38;5062548;28;1556;-61
2021/08/18 02:03:39;;;;;;;;;;;;;;;28.05;39.85;97483.94;5066454;28;1615;-62
2021/08/18 02:06:05;;;;;;;;;;;;;;;28.04;39.92;97472.50;5065463;28;1446;-62
2021/08/18 02:08:30;;;;;;;;;;;;;;;27.85;40.40;97475.13;5069858;28;1221;-63
2021/08/18 02:10:55;;;;;;;;;;;;;;;28.03;39.80;97469.97;5068898;28;1476;-62
2021/08/18 02:13:20;;;;;;;;;;;;;;;28.04;39.94;97472.50;5071708;28;1593;-61
2021/08/18 02:15:45;;;;;;;;;;;;;;;27.91;40.18;97468.44;5070431;28;1905;-63
2021/08/18 02:20:38;;;;;;;;;;;;;;;28.24;39.54;97456.59;5048758;28;1370;-60
2021/08/18 02:23:04;;;;;;;;;;;;;;;28.07;39.87;97461.59;5049830;28;1542;-60
2021/08/18 02:25:29;;;;;;;;;;;;;;;28.23;39.43;97454.91;5050876;28;1586;-60
2021/08/18 02:27:57;;;;;;;;;;;;;;;28.17;39.62;97451.00;5050304;28;1641;-60
2021/08/18 02:30:23;;;;;;;;;;;;;;;28.22;39.46;97448.78;5062349;28;1130;-60
2021/08/18 02:32:48;;;;;;;;;;;;;;;28.04;40.11;97459.25;5061159;28;1135;-60
2021/08/18 02:35:13;;;;;;;;;;;;;;;28.00;39.91;97459.66;5056576;28;1918;-59
2021/08/18 02:37:38;;;;;;;;;;;;;;;28.10;39.69;97458.66;5060796;28;1255;-60
2021/08/18 02:40:04;;;;;;;;;;;;;;;28.13;39.76;97459.38;5061706;28;1302;-60
2021/08/18 02:42:29;;;;;;;;;;;;;;;27.83;40.22;97458.53;5060894;28;1665;-61
2021/08/18 02:44:55;;;;;;;;;;;;;;;28.01;39.67;97454.19;5060678;28;1128;-60
2021/08/18 02:47:20;;;;;;;;;;;;;;;28.09;39.79;97454.34;5058168;28;1502;-60
2021/08/18 02:49:45;;;;;;;;;;;;;;;28.18;39.52;97452.66;5061065;28;1351;-60
2021/08/18 02:52:10;;;;;;;;;;;;;;;28.09;39.63;97454.34;5057601;28;1301;-59
2021/08/18 02:54:35;;;;;;;;;;;;;;;28.14;39.73;97453.94;5050986;28;1902;-61
2021/08/18 02:57:00;;;;;;;;;;;;;;;28.12;39.48;97452.38;5059230;28;1660;-60
2021/08/18 02:59:26;;;;;;;;;;;;;;;28.08;39.70;97449.19;5060467;28;1315;-60
2021/08/18 03:01:51;;;;;;;;;;;;;;;27.97;39.94;97458.13;5062713;28;1109;-60
2021/08/18 03:04:16;;;;;;;;;;;;;;;27.93;40.05;97455.88;5061471;28;1890;-60
2021/08/18 03:06:41;;;;;;;;;;;;;;;28.12;39.39;97452.38;5058396;28;1681;-61
2021/08/18 03:09:06;;;;;;;;;;;;;;;28.26;39.26;97454.63;5059174;28;1368;-60
2021/08/18 03:11:32;;;;;;;;;;;;;;;28.17;39.40;97455.47;5062476;28;1211;-60
2021/08/18 03:13:57;;;;;;;;;;;;;;;28.08;39.54;97455.31;5058212;28;1728;-60
2021/08/18 03:16:22;;;;;;;;;;;;;;;28.12;39.69;97458.53;5060410;28;1909;-61
2021/08/18 03:18:48;;;;;;;;;;;;;;;28.14;39.38;97461.06;5059413;28;1300;-60
2021/08/18 03:21:13;;;;;;;;;;;;;;;28.20;39.27;97460.47;5059879;28;1549;-60
2021/08/18 03:23:38;;;;;;;;;;;;;;;28.14;39.68;97461.06;5060268;28;1176;-61
2021/08/18 03:26:03;;;;;;;;;;;;;;;28.07;39.65;97460.78;5059904;28;1321;-60
2021/08/18 03:28:28;;;;;;;;;;;;;;;28.14;39.42;97459.25;5058057;28;1653;-61
2021/08/18 03:30:54;;;;;;;;;;;;;;;28.04;39.88;97453.06;5061597;28;1223;-62
2021/08/18 03:33:19;;;;;;;;;;;;;;;28.05;39.67;97452.97;5058409;28;1666;-61
2021/08/18 03:35:44;;;;;;;;;;;;;;;27.96;39.69;97455.59;5059180;28;1973;-61
2021/08/18 03:38:09;;;;;;;;;;;;;;;27.98;39.82;97451.84;5055718;28;1752;-61
2021/08/18 03:40:34;;;;;;;;;;;;;;;28.11;39.40;97440.94;5058058;28;1258;-60
2021/08/18 03:43:00;;;;;;;;;;;;;;;27.91;39.74;97445.41;5056065;28;1733;-61
2021/08/18 03:45:25;;;;;;;;;;;;;;;27.97;39.86;97439.56;5059357;28;992;-60
2021/08/18 03:47:51;;;;;;;;;;;;;;;27.94;39.84;97445.13;5058851;28;1309;-60
2021/08/18 03:50:16;;;;;;;;;;;;;;;27.98;39.78;97443.06;5058306;28;1604;-60
2021/08/18 03:52:41;;;;;;;;;;;;;;;28.18;39.28;97441.22;5060102;28;1222;-60
2021/08/18 03:55:07;;;;;;;;;;;;;;;28.05;39.91;97447.66;5053213;28;1959;-59
2021/08/18 03:57:32;;;;;;;;;;;;;;;28.05;39.94;97455.63;5056582;28;1712;-60
2021/08/18 03:59:59;;;;;;;;;;;;;;;28.09;39.53;97449.03;5059568;28;1443;-60
2021/08/18 04:02:24;;;;;;;;;;;;;;;28.20;39.22;97458.69;5060737;28;995;-59
2021/08/18 04:04:49;;;;;;;;;;;;;;;28.16;39.46;97464.41;5058258;28;1636;-60
2021/08/18 04:07:15;;;;;;;;;;;;;;;28.23;39.32;97460.22;5059427;28;1220;-60
2021/08/18 04:09:40;;;;;;;;;;;;;;;28.11;39.65;97456.84;5060121;28;1359;-60
2021/08/18 04:12:05;;;;;;;;;;;;;;;27.97;39.72;97462.59;5057720;28;1549;-59
2021/08/18 04:14:30;;;;;;;;;;;;;;;27.88;40.20;97463.38;5060309;28;1902;-61
2021/08/18 04:16:56;;;;;;;;;;;;;;;27.89;39.73;97460.63;5059237;28;1246;-60
2021/08/18 04:19:21;;;;;;;;;;;;;;;27.87;40.02;97459.91;5058566;28;1387;-60
2021/08/18 04:21:46;;;;;;;;;;;;;;;28.14;39.37;97461.06;5057632;28;1621;-61
2021/08/18 04:24:12;;;;;;;;;;;;;;;27.85;40.08;97469.81;5060241;28;1208;-60
2021/08/18 04:26:38;;;;;;;;;;;;;;;27.96;39.93;97468.84;5058515;28;1572;-60
2021/08/18 04:29:03;;;;;;;;;;;;;;;28.30;39.24;97462.19;5056600;28;1676;-61
2021/08/18 04:31:28;;;;;;;;;;;;;;;27.98;39.87;97472.22;5060027;28;1176;-61
2021/08/18 04:33:53;;;;;;;;;;;;;;;28.09;39.32;97459.66;5057654;28;1432;-60
2021/08/18 04:36:18;;;;;;;;;;;;;;;27.94;39.68;97462.84;5057955;28;1957;-60
2021/08/18 04:38:44;;;;;;;;;;;;;;;28.12;39.67;97469.13;5052972;28;1963;-60
2021/08/18 04:41:09;;;;;;;;;;;;;;;27.89;40.09;97471.22;5058383;28;1212;-61
2021/08/18 04:43:34;;;;;;;;;;;;;;;27.92;39.84;97473.59;5052847;28;1573;-60
2021/08/18 04:45:59;;;;;;;;;;;;;;;28.29;39.24;97467.63;5060360;28;1020;-60
2021/08/18 04:48:24;;;;;;;;;;;;;;;28.23;39.14;97471.66;5057381;28;1358;-61
2021/08/18 04:50:50;;;;;;;;;;;;;;;28.02;39.94;97473.59;5059132;28;1637;-59
2021/08/18 04:53:15;;;;;;;;;;;;;;;28.35;38.67;97470.56;5058336;28;1072;-60
2021/08/18 04:55:40;;;;;;;;;;;;;;;28.17;39.17;97474.84;5060995;28;1957;-60
2021/08/18 04:58:05;;;;;;;;;;;;;;;27.83;39.97;97470.94;5057247;28;1807;-60
2021/08/18 05:00:30;;;;;;;;;;;;;;;27.97;39.81;97470.53;5059096;28;1316;-60
2021/08/18 05:02:56;;;;;;;;;;;;;;;27.70;40.31;97472.00;5058859;28;1223;-59
2021/08/18 05:05:21;;;;;;;;;;;;;;;28.09;39.35;97467.59;5057242;28;1831;-60
2021/08/18 05:07:46;;;;;;;;;;;;;;;28.35;39.11;97465.25;5057575;28;1633;-61
2021/08/18 05:10:11;;;;;;;;;;;;;;;27.99;39.80;97474.72;5058971;28;1318;-60
2021/08/18 05:12:37;;;;;;;;;;;;;;;28.04;39.75;97471.63;5056572;28;1585;-60
2021/08/18 05:15:02;;;;;;;;;;;;;;;28.23;39.33;97481.44;5058013;28;1898;-59
2021/08/18 05:17:27;;;;;;;;;;;;;;;28.15;39.30;97483.94;5056107;28;1289;-60
2021/08/18 05:19:52;;;;;;;;;;;;;;;28.04;39.50;97484.88;5049117;28;1350;-60
2021/08/18 05:22:18;;;;;;;;;;;;;;;28.10;39.53;97487.00;5051519;28;1650;-60
2021/08/18 05:24:43;;;;;;;;;;;;;;;28.33;39.01;97483.13;5059206;28;1104;-61
2021/08/18 05:27:08;;;;;;;;;;;;;;;28.26;39.19;97484.63;5057847;28;1600;-60
2021/08/18 05:29:33;;;;;;;;;;;;;;;28.38;38.87;97481.88;5058973;28;1292;-61
2021/08/18 05:31:58;;;;;;;;;;;;;;;28.34;38.75;97482.16;5057298;28;1274;-61
2021/08/18 05:34:24;;;;;;;;;;;;;;;28.06;39.51;97486.44;5059788;28;1910;-60
2021/08/18 05:36:49;;;;;;;;;;;;;;;28.50;38.53;97476.25;5056136;28;1577;-60
2021/08/18 05:39:14;;;;;;;;;;;;;;;28.20;39.29;97479.91;5057802;28;1313;-60
2021/08/18 05:41:39;;;;;;;;;;;;;;;28.53;38.36;97486.63;5059393;28;1250;-61
2021/08/18 05:44:04;;;;;;;;;;;;;;;28.21;39.23;97483.38;5057363;28;1648;-60
2021/08/18 05:46:30;;;;;;;;;;;;;;;28.10;39.31;97487.00;5064343;28;1171;-60
2021/08/18 05:48:55;;;;;;;;;;;;;;;28.28;38.92;97489.78;5063507;28;1389;-61
2021/08/18 05:51:20;;;;;;;;;;;;;;;28.00;39.69;97497.59;5060441;28;1514;-61
2021/08/18 05:53:49;;;;;;;;;;;;;;;28.17;39.49;97498.72;5061193;28;1215;-60
2021/08/18 05:56:15;;;;;;;;;;;;;;;28.28;39.41;97489.78;5059693;28;1971;-59
2021/08/18 05:58:40;;;;;;;;;;;;;;;28.16;39.50;97494.41;5062652;28;1609;-60
2021/08/18 06:01:05;;;;;;;;;;;;;;;28.47;38.87;97491.66;5059148;28;1254;-60
2021/08/18 06:03:30;;;;;;;;;;;;;;;28.25;39.21;97492.72;5062137;28;1262;-60
2021/08/18 06:05:55;;;;;;;;;;;;;;;28.13;39.48;97492.03;5061253;28;1661;-60
2021/08/18 06:08:21;;;;;;;;;;;;;;;28.42;38.67;97493.88;5061544;28;1359;-60
2021/08/18 06:10:46;;;;;;;;;;;;;;;28.46;38.57;97488.16;5062142;28;1258;-61
2021/08/18 06:13:12;;;;;;;;;;;;;;;28.29;39.25;97492.34;5059852;28;1637;-60
2021/08/18 06:15:38;;;;;;;;;;;;;;;28.36;39.05;97495.28;5061527;28;1967;-60
2021/08/18 06:18:03;;;;;;;;;;;;;;;28.26;39.36;97489.09;5062294;28;1291;-60
2021/08/18 06:20:28;;;;;;;;;;;;;;;28.38;38.79;97493.31;5060445;28;1660;-60
2021/08/18 06:22:53;;;;;;;;;;;;;;;28.47;38.77;97494.28;5063023;28;1239;-60
2021/08/18 06:25:19;;;;;;;;;;;;;;;28.33;39.15;97493.72;5062042;28;1190;-60
2021/08/18 06:27:44;;;;;;;;;;;;;;;28.27;39.09;97491.59;5061594;28;1637;-60
2021/08/18 06:30:09;;;;;;;;;;;;;;;28.15;39.60;97498.03;5058865;28;1258;-60
2021/08/18 06:32:34;;;;;;;;;;;;;;;27.80;40.06;97495.88;5060984;28;1176;-61
2021/08/18 06:35:00;;;;;;;;;;;;;;;27.76;40.40;97497.97;5058874;28;1910;-60
2021/08/18 06:37:25;;;;;;;;;;;;;;;27.98;39.71;97501.38;5058928;28;1581;-60
2021/08/18 06:39:50;;;;;;;;;;;;;;;27.98;39.96;97494.25;5062637;28;1385;-60
2021/08/18 06:42:15;;;;;;;;;;;;;;;28.35;38.96;97501.53;5060158;28;1645;-62
2021/08/18 06:44:41;;;;;;;;;;;;;;;28.03;39.73;97502.59;5061582;28;1295;-59
2021/08/18 06:47:06;;;;;;;;;;;;;;;28.39;38.93;97499.47;5057258;28;1522;-61
2021/08/18 06:49:31;;;;;;;;;;;;;;;27.98;39.78;97498.72;5059887;28;1363;-59
2021/08/18 06:51:57;;;;;;;;;;;;;;;27.93;39.66;97492.97;5059942;28;1633;-60
2021/08/18 06:54:22;;;;;;;;;;;;;;;28.47;38.51;97492.47;5059808;28;1909;-60
2021/08/18 06:56:47;;;;;;;;;;;;;;;28.35;39.01;97501.53;5059516;28;1234;-60
2021/08/18 06:59:13;;;;;;;;;;;;;;;27.96;40.09;97498.00;5058411;28;1554;-61
2021/08/18 07:01:39;;;;;;;;;;;;;;;28.19;39.48;97504.72;5061907;28;1131;-60
2021/08/18 07:04:05;;;;;;;;;;;;;;;28.15;39.38;97505.16;5060547;28;1391;-61
2021/08/18 07:06:30;;;;;;;;;;;;;;;28.24;39.37;97499.00;5058793;28;1665;-61
2021/08/18 07:08:56;;;;;;;;;;;;;;;28.32;39.31;97504.50;5059807;28;1292;-60
2021/08/18 07:11:21;;;;;;;;;;;;;;;28.48;38.65;97504.75;5061403;28;1282;-60
2021/08/18 07:13:46;;;;;;;;;;;;;;;28.49;38.69;97502.94;5058381;28;1613;-60
2021/08/18 07:16:11;;;;;;;;;;;;;;;28.06;39.47;97505.00;5062080;28;1910;-60
2021/08/18 07:18:36;;;;;;;;;;;;;;;28.35;39.07;97501.53;5059832;28;1329;-60
2021/08/18 07:21:02;;;;;;;;;;;;;;;28.12;39.26;97506.25;5056369;28;1506;-61
2021/08/18 07:23:27;;;;;;;;;;;;;;;28.22;39.29;97498.31;5058104;28;1638;-60
2021/08/18 07:25:52;;;;;;;;;;;;;;;28.33;38.96;97506.16;5059195;28;1293;-61
2021/08/18 07:28:17;;;;;;;;;;;;;;;27.89;40.22;97505.69;5055894;28;1589;-60
2021/08/18 07:30:42;;;;;;;;;;;;;;;28.32;39.04;97504.50;5060708;28;1179;-60
2021/08/18 07:33:08;;;;;;;;;;;;;;;28.39;38.88;97508.25;5054331;28;1285;-60
2021/08/18 07:35:34;;;;;;;;;;;;;;;28.59;38.44;97512.56;5061530;28;1984;-59
2021/08/18 07:37:59;;;;;;;;;;;;;;;28.20;39.48;97511.72;5059410;28;1637;-60
2021/08/18 07:40:25;;;;;;;;;;;;;;;28.37;38.92;97507.56;5061083;28;1331;-60
2021/08/18 07:42:52;;;;;;;;;;;;;;;28.45;38.69;97507.72;5061199;28;1644;-61
2021/08/18 07:45:17;;;;;;;;;;;;;;;28.30;39.41;97517.06;5060812;28;1179;-60
2021/08/18 07:47:42;;;;;;;;;;;;;;;27.86;40.36;97515.69;5058407;28;1431;-61
2021/08/18 07:50:08;;;;;;;;;;;;;;;28.47;39.11;97513.69;5060019;28;1218;-60
2021/08/18 07:52:33;;;;;;;;;;;;;;;28.15;39.75;97511.28;5057216;28;1622;-60
2021/08/18 07:54:58;;;;;;;;;;;;;;;28.07;39.67;97514.63;5060560;28;1914;-60
2021/08/18 07:57:23;;;;;;;;;;;;;;;28.15;39.74;97513.94;5057920;28;1566;-60
2021/08/18 07:59:51;;;;;;;;;;;;;;;28.08;39.84;97513.66;5060061;28;1357;-61
2021/08/18 08:02:19;;;;;;;;;;;;;;;27.84;40.16;97518.50;5058692;28;1290;-60
2021/08/18 08:04:45;;;;;;;;;;;;;;;28.22;39.64;97517.72;5056812;28;1601;-61
2021/08/18 08:07:10;;;;;;;;;;;;;;;28.16;39.29;97522.72;5056503;28;1549;-60
2021/08/18 08:09:36;;;;;;;;;;;;;;;28.31;39.27;97513.44;5060154;28;1317;-62
2021/08/18 08:12:01;;;;;;;;;;;;;;;28.47;39.01;97518.16;5057048;28;1518;-60
2021/08/18 08:14:26;;;;;;;;;;;;;;;28.13;39.62;97515.91;5058112;28;1931;-60
2021/08/18 08:16:51;;;;;;;;;;;;;;;28.36;39.14;97519.16;5058289;28;1344;-59
2021/08/18 08:19:16;;;;;;;;;;;;;;;28.28;39.19;97521.59;5063143;22;1535;-59
2021/08/18 08:21:42;;;;;;;;;;;;;;;28.19;39.46;97522.44;5045549;28;1605;-59
2021/08/18 08:24:07;;;;;;;;;;;;;;;28.07;39.80;97527.88;5048535;28;1125;-60
2021/08/18 08:26:32;;;;;;;;;;;;;;;28.29;39.14;97526.84;5045511;28;1208;-60
2021/08/18 08:28:57;;;;;;;;;;;;;;;27.92;39.93;97526.59;5045125;28;1586;-61
2021/08/18 08:31:23;;;;;;;;;;;;;;;28.03;39.89;97528.28;5045022;28;1177;-60
2021/08/18 08:33:48;;;;;;;;;;;;;;;28.42;39.05;97533.66;5043161;28;1230;-59
2021/08/18 08:36:13;;;;;;;;;;;;;;;28.30;39.12;97531.16;5045125;28;1910;-60
2021/08/18 08:38:38;;;;;;;;;;;;;;;28.04;39.76;97537.91;5042469;28;1546;-60
2021/08/18 08:41:05;;;;;;;;;;;;;;;28.07;39.51;97527.88;5044479;28;1191;-59
2021/08/18 08:43:30;;;;;;;;;;;;;;;28.20;39.38;97534.72;5042809;28;1563;-60
2021/08/18 08:45:56;;;;;;;;;;;;;;;28.11;39.47;97541.69;5044249;28;1264;-60
2021/08/18 08:48:21;;;;;;;;;;;;;;;28.21;39.40;97536.44;5043925;28;1205;-60
2021/08/18 08:50:47;;;;;;;;;;;;;;;28.02;39.81;97535.41;5043151;28;1558;-60
2021/08/18 08:53:12;;;;;;;;;;;;;;;28.06;39.68;97536.81;5026175;28;1137;-60
2021/08/18 08:55:37;;;;;;;;;;;;;;;27.97;39.97;97542.09;5048321;28;1915;-60
2021/08/18 08:58:02;;;;;;;;;;;;;;;28.28;39.10;97535.75;5043122;28;1586;-60
2021/08/18 09:00:28;;;;;;;;;;;;;;;28.84;37.78;97542.19;5049320;28;1275;-62
2021/08/18 09:03:06;;;;;;;;;;;;;;;28.55;38.45;97539.53;5048982;28;1191;-61
2021/08/18 09:05:31;;;;;;;;;;;;;;;28.59;37.70;97536.44;5049339;28;1074;-60
2021/08/18 09:07:57;;;;;;;;;;;;;;;28.40;38.27;97541.75;5047964;28;1654;-61
2021/08/18 09:10:22;;;;;;;;;;;;;;;28.36;38.03;97535.06;5049246;28;1290;-61
2021/08/18 09:12:47;;;;;;;;;;;;;;;28.52;37.55;97538.00;5044547;28;1638;-60
2021/08/18 09:15:13;;;;;;;;;;;;;;;28.48;37.54;97539.25;5033424;28;1902;-61
2021/08/18 09:17:38;;;;;;;;;;;;;;;28.51;37.84;97549.56;5047064;28;1546;-61
2021/08/18 09:20:13;;;;;;;;;;;;;;;28.48;37.82;97536.59;5051952;28;1382;-61
2021/08/18 09:22:43;;;;;;;;;;;;;;;28.53;37.48;97538.84;5051260;28;1578;-60
2021/08/18 09:25:09;;;;;;;;;;;;;;;28.61;37.47;97545.13;5053134;28;1231;-61
2021/08/18 09:27:34;;;;;;;;;;;;;;;28.63;37.61;97540.50;5052657;28;1727;-61
2021/08/18 09:29:59;;;;;;;;;;;;;;;28.49;37.75;97540.91;5040953;28;1545;-60
2021/08/18 09:32:25;;;;;;;;;;;;;;;28.47;37.66;97545.53;5053285;28;1146;-61
2021/08/18 09:34:54;;;;;;;;;;;;;;;28.51;37.51;97543.44;5051409;28;1910;-61
2021/08/18 09:37:19;;;;;;;;;;;;;;;28.52;37.47;97545.13;5051777;28;1296;-60
2021/08/18 09:39:44;;;;;;;;;;;;;;;28.64;37.34;97541.34;5052121;28;1365;-61
2021/08/18 09:42:29;;;;;;;;;;;;;;;28.40;37.79;97547.06;5050511;28;1700;-60
2021/08/18 09:45:14;;;;;;;;;;;;;;;28.52;37.42;97543.31;5053424;28;1158;-61
2021/08/18 09:47:59;;;;;;;;;;;;;;;28.50;37.72;97537.28;5050758;28;1152;-60
2021/08/18 09:50:24;;;;;;;;;;;;;;;28.56;37.17;97544.69;5051339;28;1352;-61
2021/08/18 09:52:50;;;;;;;;;;;;;;;28.46;37.55;97541.22;5049526;28;1630;-61
2021/08/18 09:55:15;;;;;;;;;;;;;;;28.45;37.67;97547.50;5052133;28;1906;-60
2021/08/18 09:57:40;;;;;;;;;;;;;;;28.63;37.25;97542.31;5038486;28;1584;-60
2021/08/18 10:00:06;;;;;;;;;;;;;;;28.64;37.49;97536.88;5051361;28;1404;-61
2021/08/18 10:02:31;;;;;;;;;;;;;;;28.54;37.64;97541.34;5051573;28;1159;-60
2021/08/18 10:04:59;;;;;;;;;;;;;;;28.60;37.70;97540.78;5037872;28;1463;-61
2021/08/18 10:07:25;;;;;;;;;;;;;;;28.48;37.76;97539.25;5050282;28;1567;-61
2021/08/18 10:09:50;;;;;;;;;;;;;;;28.73;37.22;97532.53;5050920;28;1477;-61
2021/08/18 10:12:15;;;;;;;;;;;;;;;28.74;37.04;97533.38;5038876;28;1645;-60
2021/08/18 10:14:40;;;;;;;;;;;;;;;28.38;38.27;97524.31;5050760;28;1898;-61
2021/08/18 10:17:05;;;;;;;;;;;;;;;28.61;37.55;97529.19;5051645;28;1077;-61
2021/08/18 10:19:31;;;;;;;;;;;;;;;28.50;37.70;97521.38;5051200;28;1292;-60
2021/08/18 10:21:59;;;;;;;;;;;;;;;28.68;37.25;97520.69;5050095;28;1610;-61
2021/08/18 10:24:32;;;;;;;;;;;;;;;28.41;37.78;97530.16;5051391;28;1201;-60
2021/08/18 10:26:57;;;;;;;;;;;;;;;28.49;37.94;97519.69;5041043;28;1409;-61
2021/08/18 10:29:22;;;;;;;;;;;;;;;28.66;37.45;97523.44;5048918;28;1930;-61
2021/08/18 10:31:48;;;;;;;;;;;;;;;28.77;37.21;97517.19;5051381;28;1171;-61
2021/08/18 10:34:22;;;;;;;;;;;;;;;28.50;37.66;97525.84;5050013;28;1392;-60
2021/08/18 10:36:54;;;;;;;;;;;;;;;28.50;37.66;97516.06;5050962;28;1991;-60
2021/08/18 10:39:19;;;;;;;;;;;;;;;28.64;37.70;97523.59;5046738;28;1582;-60
2021/08/18 10:41:56;;;;;;;;;;;;;;;28.68;37.32;97523.34;5051473;28;1034;-62
2021/08/18 10:44:40;;;;;;;;;;;;;;;28.62;37.69;97524.72;5049063;28;1705;-61
2021/08/18 10:47:23;;;;;;;;;;;;;;;28.50;37.93;97521.38;5048745;28;1451;-61
2021/08/18 10:49:49;;;;;;;;;;;;;;;28.62;37.52;97516.78;5050717;28;1575;-60
2021/08/18 10:52:29;;;;;;;;;;;;;;;28.42;37.93;97507.97;5049999;28;1211;-61
2021/08/18 10:55:00;;;;;;;;;;;;;;;28.59;37.68;97504.59;5050244;28;1906;-61
2021/08/18 10:57:45;;;;;;;;;;;;;;;28.57;37.62;97508.38;5048080;28;2326;-61
2021/08/18 11:00:13;;;;;;;;;;;;;;;28.26;38.49;97508.50;5051630;28;1279;-60
2021/08/18 11:02:47;;;;;;;;;;;;;;;28.64;37.37;97512.16;5050377;28;1335;-60
2021/08/18 11:05:12;;;;;;;;;;;;;;;28.62;37.88;97509.66;5049735;28;1122;-61
2021/08/18 11:07:56;;;;;;;;;;;;;;;28.53;37.97;97509.66;5048296;28;1578;-61
2021/08/18 11:10:21;;;;;;;;;;;;;;;28.58;37.71;97502.09;5050109;28;1377;-60
2021/08/18 11:12:47;;;;;;;;;;;;;;;28.74;37.51;97501.50;5050201;28;1546;-61
2021/08/18 11:15:15;;;;;;;;;;;;;;;28.47;37.79;97505.75;5050300;28;1972;-61
2021/08/18 11:17:41;;;;;;;;;;;;;;;28.31;38.40;97510.78;5049666;28;1101;-61
2021/08/18 11:20:06;;;;;;;;;;;;;;;28.32;38.38;97515.94;5047711;28;1618;-60
2021/08/18 11:22:32;;;;;;;;;;;;;;;28.48;37.69;97515.38;5035754;28;1696;-61
2021/08/18 11:25:01;;;;;;;;;;;;;;;28.39;38.12;97505.59;5036497;28;1128;-61
2021/08/18 11:27:26;;;;;;;;;;;;;;;28.53;37.96;97510.50;5046718;28;1511;-60
2021/08/18 11:29:51;;;;;;;;;;;;;;;28.49;37.71;97514.38;5049593;28;1323;-61
2021/08/18 11:32:23;;;;;;;;;;;;;;;28.49;37.91;97510.91;5050616;28;1184;-60
2021/08/18 11:34:49;;;;;;;;;;;;;;;28.49;37.90;97510.91;5049118;28;1977;-60
2021/08/18 11:37:14;;;;;;;;;;;;;;;28.39;38.16;97502.13;5048267;28;1586;-60
2021/08/18 11:39:41;;;;;;;;;;;;;;;28.27;38.36;97506.69;5047238;28;1372;-61
2021/08/18 11:42:13;;;;;;;;;;;;;;;28.38;38.17;97505.75;5048570;28;1598;-60
2021/08/18 11:44:42;;;;;;;;;;;;;;;28.57;37.92;97503.91;5047645;28;1730;-60
2021/08/18 11:47:11;;;;;;;;;;;;;;;28.43;38.03;97498.19;5050398;28;1176;-61
2021/08/18 11:49:36;;;;;;;;;;;;;;;28.45;38.06;97502.41;5048127;28;1367;-60
2021/08/18 11:52:02;;;;;;;;;;;;;;;28.41;38.22;97502.81;5047503;28;1655;-61
2021/08/18 11:54:27;;;;;;;;;;;;;;;28.47;38.18;97496.94;5049702;28;1196;-61
2021/08/18 11:57:02;;;;;;;;;;;;;;;28.38;37.91;97495.16;5047830;28;1961;-61
2021/08/18 11:59:28;;;;;;;;;;;;;;;28.58;37.69;97492.31;5049883;28;1361;-60
2021/08/18 12:01:53;;;;;;;;;;;;;;;28.68;37.44;97496.81;5048735;28;1396;-60
2021/08/18 12:04:19;;;;;;;;;;;;;;;28.31;38.32;97492.22;5036862;28;1398;-61
2021/08/18 12:06:46;;;;;;;;;;;;;;;28.54;37.80;97498.06;5038353;28;1532;-61
2021/08/18 12:09:21;;;;;;;;;;;;;;;28.71;37.43;97493.84;5049872;28;1366;-60
2021/08/18 12:11:46;;;;;;;;;;;;;;;28.59;37.98;97493.97;5050467;28;1272;-61
2021/08/18 12:14:12;;;;;;;;;;;;;;;28.41;38.21;97498.34;5048178;28;1983;-60
2021/08/18 12:16:38;;;;;;;;;;;;;;;28.59;37.53;97498.47;5050043;28;1902;-61
2021/08/18 12:19:12;;;;;;;;;;;;;;;28.59;37.45;97493.97;5048839;28;1276;-60
2021/08/18 12:21:38;;;;;;;;;;;;;;;28.43;38.07;97499.03;5048394;28;1538;-61
2021/08/18 12:24:07;;;;;;;;;;;;;;;28.43;38.03;97492.88;5049497;28;1228;-60
2021/08/18 12:26:40;;;;;;;;;;;;;;;28.48;37.86;97488.84;5046751;28;1337;-61
2021/08/18 12:29:05;;;;;;;;;;;;;;;28.43;38.07;97491.06;5048157;28;1563;-60
2021/08/18 12:31:49;;;;;;;;;;;;;;;28.58;37.51;97489.66;5049341;28;1204;-61
2021/08/18 12:34:14;;;;;;;;;;;;;;;28.56;37.94;97483.66;5049207;28;1392;-61
2021/08/18 12:36:39;;;;;;;;;;;;;;;28.57;37.58;97479.19;5044817;28;1973;-61
2021/08/18 12:39:05;;;;;;;;;;;;;;;28.51;37.83;97488.56;5048612;28;1290;-60
2021/08/18 12:41:30;;;;;;;;;;;;;;;28.69;37.26;97480.72;5049075;28;1305;-60
2021/08/18 12:44:02;;;;;;;;;;;;;;;28.72;37.43;97479.59;5044311;28;1638;-60
2021/08/18 12:46:30;;;;;;;;;;;;;;;28.53;37.63;97470.69;5048702;28;1181;-61
2021/08/18 12:48:56;;;;;;;;;;;;;;;28.72;37.42;97458.38;5036452;28;1312;-61
2021/08/18 12:51:21;;;;;;;;;;;;;;;28.58;37.54;97457.81;5045727;28;1625;-61
2021/08/18 12:53:46;;;;;;;;;;;;;;;28.58;37.48;97457.00;5047394;28;1354;-60
2021/08/18 12:56:11;;;;;;;;;;;;;;;28.54;38.00;97459.09;5047899;28;1977;-61